createdAt,value
2018-09-06T00:01:26.459Z,10.80
2018-09-06T00:03:56.226Z,8.23
2018-09-06T00:06:26.145Z,7.93
2018-09-06T00:08:56.528Z,9.70
2018-09-06T00:11:26.289Z,9.40
2018-09-06T00:13:56.245Z,11.30
2018-09-06T00:16:26.162Z,9.80
2018-09-06T00:18:56.045Z,9.97
2018-09-06T00:21:26.118Z,7.93
2018-09-06T00:23:56.351Z,8.43
2018-09-06T00:26:26.451Z,9.07
2018-09-06T00:28:56.232Z,8.87
2018-09-06T00:31:26.583Z,9.63
2018-09-06T00:33:56.402Z,11.80
2018-09-06T00:36:26.201Z,11.37
2018-09-06T00:38:56.231Z,10.30
2018-09-06T00:41:26.058Z,11.30
2018-09-06T00:43:56.071Z,12.30
2018-09-06T00:46:26.203Z,8.43
2018-09-06T00:48:56.135Z,11.97
2018-09-06T00:51:26.765Z,8.47
2018-09-06T00:53:56.562Z,9.53
2018-09-06T00:56:26.560Z,11.00
2018-09-06T00:58:56.376Z,9.90
2018-09-06T01:01:26.182Z,9.17
2018-09-06T01:03:56.682Z,14.00
2018-09-06T01:06:26.557Z,11.70
2018-09-06T01:08:56.343Z,10.17
2018-09-06T01:11:26.294Z,12.20
2018-09-06T01:13:56.410Z,9.13
2018-09-06T01:16:26.385Z,9.60
2018-09-06T01:18:56.209Z,10.67
2018-09-06T01:21:26.036Z,13.73
2018-09-06T01:23:56.547Z,8.70
2018-09-06T01:26:26.340Z,8.60
2018-09-06T01:28:56.138Z,8.87
2018-09-06T01:31:26.317Z,9.50
2018-09-06T01:33:56.222Z,10.57
2018-09-06T01:36:30.934Z,7.63
2018-09-06T01:39:01.002Z,9.27
2018-09-06T01:41:31.171Z,10.40
2018-09-06T01:44:01.252Z,10.43
2018-09-06T01:46:31.893Z,12.47
2018-09-06T01:49:02.028Z,10.53
2018-09-06T01:51:32.901Z,14.07
2018-09-06T01:54:03.164Z,19.37
2018-09-06T01:56:34.396Z,12.37
2018-09-06T01:59:04.166Z,9.30
2018-09-06T02:01:34.282Z,7.67
2018-09-06T02:04:04.176Z,12.03
2018-09-06T02:06:34.577Z,8.43
2018-09-06T02:09:05.375Z,8.68
2018-09-06T02:11:35.439Z,11.00
2018-09-06T02:14:05.865Z,8.63
2018-09-06T02:16:36.294Z,9.47
2018-09-06T02:19:06.325Z,16.73
2018-09-06T02:21:36.265Z,11.53
2018-09-06T02:24:06.110Z,11.80
2018-09-06T02:26:35.904Z,13.27
2018-09-06T02:29:05.785Z,11.97
2018-09-06T02:31:35.548Z,12.10
2018-09-06T02:34:06.083Z,11.97
2018-09-06T02:36:35.818Z,12.47
2018-09-06T02:39:07.491Z,10.95
2018-09-06T02:41:37.810Z,13.08
2018-09-06T02:44:07.840Z,10.50
2018-09-06T02:46:37.958Z,11.77
2018-09-06T02:49:07.999Z,9.93
2018-09-06T02:51:37.907Z,11.40
2018-09-06T02:54:08.829Z,13.32
2018-09-06T02:56:40.238Z,10.58
2018-09-06T02:59:11.042Z,9.55
2018-09-06T03:01:42.006Z,11.12
2018-09-06T03:04:13.814Z,14.30
2018-09-06T03:06:44.209Z,10.23
2018-09-06T03:09:14.965Z,9.98
2018-09-06T03:11:54.229Z,13.10
2018-09-06T03:14:24.164Z,15.07
2018-09-06T03:16:54.017Z,13.07
2018-09-06T03:19:23.901Z,11.43
2018-09-06T03:21:53.716Z,14.03
2018-09-06T03:24:23.877Z,13.88
2018-09-06T03:26:53.737Z,11.33
2018-09-06T03:29:23.996Z,15.17
2018-09-06T03:31:53.812Z,13.60
2018-09-06T03:34:24.217Z,13.16
2018-09-06T03:36:55.081Z,13.20
2018-09-06T03:39:25.967Z,13.75
2018-09-06T03:41:57.022Z,12.25
2018-09-06T03:44:27.837Z,12.88
2018-09-06T03:46:59.220Z,13.54
2018-09-06T03:49:29.985Z,12.55
2018-09-06T03:52:01.077Z,13.80
2018-09-06T03:54:32.359Z,16.70
2018-09-06T03:57:03.144Z,14.25
2018-09-06T03:59:33.889Z,14.03
2018-09-06T04:02:05.226Z,14.96
2018-09-06T04:04:35.980Z,15.08
2018-09-06T04:07:08.057Z,13.20
2018-09-06T04:09:38.365Z,12.25
2018-09-06T04:12:09.135Z,14.03
2018-09-06T04:14:39.867Z,14.78
2018-09-06T04:17:11.329Z,15.48
2018-09-06T04:19:41.084Z,15.00
2018-09-06T04:22:11.966Z,15.60
2018-09-06T04:24:43.318Z,13.98
2018-09-06T04:27:14.092Z,17.30
2018-09-06T04:29:45.197Z,15.38
2018-09-06T04:32:15.997Z,12.95
2018-09-06T04:34:46.984Z,15.88
2018-09-06T04:37:17.801Z,12.58
2018-09-06T04:39:51.807Z,13.36
2018-09-06T04:42:21.591Z,16.07
2018-09-06T04:44:51.410Z,15.13
2018-09-06T04:47:22.064Z,14.60
2018-09-06T04:49:52.989Z,14.07
2018-09-06T04:52:24.270Z,14.45
2018-09-06T04:54:56.119Z,13.88
2018-09-06T04:57:26.877Z,12.73
2018-09-06T04:59:57.049Z,12.17
2018-09-06T05:02:28.159Z,13.50
2018-09-06T05:04:58.956Z,17.65
2018-09-06T05:07:29.990Z,13.75
2018-09-06T05:10:00.745Z,18.55
2018-09-06T05:12:32.411Z,20.06
2018-09-06T05:15:03.208Z,18.23
2018-09-06T05:17:34.274Z,16.40
2018-09-06T05:20:05.522Z,19.45
2018-09-06T05:22:36.000Z,19.12
2018-09-06T05:25:07.540Z,16.57
2018-09-06T05:27:38.318Z,15.60
2018-09-06T05:30:09.176Z,17.32
2018-09-06T05:32:40.090Z,17.00
2018-09-06T05:35:10.948Z,19.92
2018-09-06T05:37:42.084Z,19.48
2018-09-06T05:40:12.950Z,20.02
2018-09-06T05:42:44.341Z,19.57
2018-09-06T05:45:15.045Z,21.55
2018-09-06T05:47:49.955Z,18.07
2018-09-06T05:50:19.704Z,19.80
2018-09-06T05:52:50.025Z,20.55
2018-09-06T05:55:19.895Z,23.32
2018-09-06T05:57:49.745Z,23.85
2018-09-06T06:00:26.199Z,18.70
2018-09-06T06:02:57.441Z,20.80
2018-09-06T06:05:27.574Z,23.60
2018-09-06T06:08:08.241Z,21.65
2018-09-06T06:10:40.025Z,22.15
2018-09-06T06:13:19.502Z,26.10
2018-09-06T06:15:49.567Z,27.43
2018-09-06T06:18:19.493Z,27.73
2018-09-06T06:20:49.280Z,25.00
2018-09-06T06:23:19.084Z,22.57
2018-09-06T06:25:49.558Z,22.00
2018-09-06T06:28:19.501Z,23.33
2018-09-06T06:30:49.801Z,24.23
2018-09-06T06:33:19.855Z,22.40
2018-09-06T06:35:50.020Z,21.35
2018-09-06T06:38:20.245Z,20.70
2018-09-06T06:40:50.625Z,19.30
2018-09-06T06:43:20.751Z,19.73
2018-09-06T06:45:50.851Z,18.93
2018-09-06T06:48:20.674Z,18.90
2018-09-06T06:50:50.744Z,19.30
2018-09-06T06:53:20.514Z,15.40
2018-09-06T06:55:51.018Z,17.70
2018-09-06T06:58:20.824Z,17.97
2018-09-06T07:00:50.667Z,16.77
2018-09-06T07:03:20.648Z,18.47
2018-09-06T07:05:50.457Z,17.57
2018-09-06T07:08:20.402Z,17.23
2018-09-06T07:10:50.788Z,18.77
2018-09-06T07:13:20.658Z,16.43
2018-09-06T07:15:51.229Z,21.06
2018-09-06T07:18:22.518Z,17.85
2018-09-06T07:20:53.179Z,22.62
2018-09-06T07:23:24.114Z,18.85
2018-09-06T07:25:55.009Z,18.05
2018-09-06T07:28:25.948Z,17.73
2018-09-06T07:30:56.907Z,20.60
2018-09-06T07:33:28.324Z,15.34
2018-09-06T07:35:59.095Z,17.07
2018-09-06T07:38:30.279Z,19.95
2018-09-06T07:41:01.105Z,18.37
2018-09-06T07:43:32.090Z,15.58
2018-09-06T07:46:03.001Z,16.73
2018-09-06T07:48:34.034Z,16.27
2018-09-06T07:51:04.860Z,14.53
2018-09-06T07:53:38.065Z,15.93
2018-09-06T07:56:08.177Z,14.07
2018-09-06T07:58:38.112Z,13.70
2018-09-06T08:01:08.936Z,13.93
2018-09-06T08:03:40.092Z,12.37
2018-09-06T08:06:11.055Z,15.43
2018-09-06T08:08:42.021Z,14.43
2018-09-06T08:11:12.915Z,12.63
2018-09-06T08:13:44.246Z,14.88
2018-09-06T08:16:15.186Z,11.25
2018-09-06T08:18:46.124Z,11.97
2018-09-06T08:21:16.878Z,12.93
2018-09-06T08:23:48.685Z,12.84
2018-09-06T08:26:19.145Z,14.56
2018-09-06T08:28:50.138Z,19.35
2018-09-06T08:31:21.922Z,16.20
2018-09-06T08:33:52.335Z,15.20
2018-09-06T08:36:23.141Z,9.45
2018-09-06T08:38:53.864Z,12.80
2018-09-06T08:41:26.491Z,19.26
2018-09-06T08:43:56.279Z,20.30
2018-09-06T08:46:27.079Z,12.53
2018-09-06T08:48:57.917Z,17.02
2018-09-06T08:51:28.743Z,47.40
2018-09-06T08:54:00.220Z,22.36
2018-09-06T08:56:31.059Z,11.30
2018-09-06T08:59:03.066Z,14.23
2018-09-06T09:01:37.728Z,10.50
2018-09-06T09:04:08.068Z,10.67
2018-09-06T09:06:38.657Z,10.07
2018-09-06T09:09:11.032Z,10.23
2018-09-06T09:11:41.004Z,11.05
2018-09-06T09:14:11.335Z,10.80
2018-09-06T09:16:41.228Z,11.27
2018-09-06T09:19:14.376Z,10.20
2018-09-06T09:21:44.982Z,7.80
2018-09-06T09:24:14.972Z,8.47
2018-09-06T09:26:45.004Z,9.80
2018-09-06T09:29:14.886Z,10.25
2018-09-06T09:31:45.715Z,10.75
2018-09-06T09:34:16.204Z,11.04
2018-09-06T09:36:47.044Z,10.08
2018-09-06T09:39:17.811Z,9.53
2018-09-06T09:41:49.319Z,9.06
2018-09-06T09:44:20.957Z,9.58
2018-09-06T09:49:21.428Z,8.90
2018-09-06T09:51:52.865Z,10.80
2018-09-06T09:54:24.019Z,6.60
2018-09-06T09:56:55.542Z,10.05
2018-09-06T09:59:26.138Z,8.28
2018-09-06T10:02:01.831Z,6.60
2018-09-06T10:04:40.774Z,9.13
2018-09-06T10:07:15.443Z,9.13
2018-09-06T10:09:45.765Z,6.80
2018-09-06T10:12:16.079Z,8.43
2018-09-06T10:14:46.594Z,8.30
2018-09-06T10:17:16.652Z,6.97
2018-09-06T10:19:47.017Z,7.55
2018-09-06T10:22:16.813Z,7.30
2018-09-06T10:24:46.719Z,7.37
2018-09-06T10:27:16.795Z,7.70
2018-09-06T10:29:46.619Z,9.20
2018-09-06T10:32:16.583Z,12.80
2018-09-06T10:34:46.462Z,8.00
2018-09-06T10:37:16.818Z,8.20
2018-09-06T10:39:46.897Z,10.50
2018-09-06T10:42:16.721Z,7.70
2018-09-06T10:44:46.531Z,11.60
2018-09-06T10:47:16.322Z,7.27
2018-09-06T10:49:46.079Z,6.47
2018-09-06T10:52:16.035Z,10.23
2018-09-06T10:54:46.751Z,6.72
2018-09-06T10:57:18.179Z,6.04
2018-09-06T10:59:48.920Z,6.47
2018-09-06T11:02:20.086Z,7.97
2018-09-06T11:04:50.987Z,5.67
2018-09-06T11:07:22.040Z,7.15
2018-09-06T11:09:52.891Z,6.37
2018-09-06T11:12:23.898Z,6.28
2018-09-06T11:14:54.769Z,8.73
2018-09-06T11:17:25.821Z,8.05
2018-09-06T11:19:56.693Z,6.25
2018-09-06T11:22:28.271Z,6.88
2018-09-06T11:24:59.169Z,5.83
2018-09-06T11:27:30.123Z,7.78
2018-09-06T11:30:01.114Z,7.47
2018-09-06T11:32:31.867Z,6.75
2018-09-06T11:35:03.047Z,7.95
2018-09-06T11:37:33.906Z,7.50
2018-09-06T11:40:03.884Z,8.40
2018-09-06T11:42:34.861Z,7.40
2018-09-06T11:45:07.886Z,10.95
2018-09-06T11:47:37.737Z,8.77
2018-09-06T11:50:07.924Z,10.50
2018-09-06T11:52:38.830Z,9.28
2018-09-06T11:55:10.380Z,10.52
2018-09-06T11:57:40.913Z,8.60
2018-09-06T12:00:11.985Z,6.87
2018-09-06T12:02:43.074Z,7.20
2018-09-06T12:05:14.272Z,8.08
2018-09-06T12:07:45.090Z,8.68
2018-09-06T12:10:16.004Z,7.95
2018-09-06T12:12:46.826Z,7.65
2018-09-06T12:15:17.856Z,7.62
2018-09-06T12:17:49.881Z,6.50
2018-09-06T12:20:19.877Z,8.30
2018-09-06T12:22:50.901Z,11.18
2018-09-06T12:25:26.147Z,9.20
2018-09-06T12:27:56.659Z,8.10
2018-09-06T12:30:27.192Z,8.98
2018-09-06T12:32:57.326Z,7.50
2018-09-06T12:35:27.143Z,8.15
2018-09-06T12:37:57.425Z,7.30
2018-09-06T12:40:28.069Z,6.92
2018-09-06T12:42:58.963Z,6.62
2018-09-06T12:45:30.002Z,10.13
2018-09-06T12:48:00.897Z,7.10
2018-09-06T12:50:31.967Z,9.60
2018-09-06T12:53:02.836Z,6.30
2018-09-06T12:55:34.527Z,7.85
2018-09-06T12:58:04.433Z,7.43
2018-09-06T13:00:35.045Z,6.78
2018-09-06T13:03:05.832Z,6.53
2018-09-06T13:05:37.033Z,6.80
2018-09-06T13:08:08.137Z,7.45
2018-09-06T13:10:39.112Z,6.90
2018-09-06T13:13:10.045Z,6.10
2018-09-06T13:15:40.780Z,6.42
2018-09-06T13:18:12.378Z,8.66
2018-09-06T13:20:42.985Z,8.73
2018-09-06T13:23:13.890Z,8.58
2018-09-06T13:25:44.867Z,7.83
2018-09-06T13:28:17.214Z,5.50
2018-09-06T13:30:47.004Z,6.57
2018-09-06T13:33:17.860Z,8.38
2018-09-06T13:35:49.180Z,8.54
2018-09-06T13:38:19.969Z,6.58
2018-09-06T13:40:50.908Z,6.90
2018-09-06T13:43:21.785Z,6.22
2018-09-06T13:45:53.229Z,8.34
2018-09-06T13:48:24.163Z,6.42
2018-09-06T13:50:55.057Z,6.78
2018-09-06T13:53:26.835Z,6.17
2018-09-06T13:55:56.927Z,7.35
2018-09-06T13:58:28.528Z,9.55
2018-09-06T14:00:59.092Z,6.80
2018-09-06T14:03:29.938Z,6.67
2018-09-06T14:06:01.585Z,7.25
2018-09-06T14:08:32.250Z,7.25
2018-09-06T14:11:03.090Z,8.58
2018-09-06T14:13:34.341Z,8.38
2018-09-06T14:16:05.269Z,8.98
2018-09-06T14:18:36.293Z,7.03
2018-09-06T14:21:07.090Z,7.08
2018-09-06T14:23:37.889Z,7.70
2018-09-06T14:26:09.228Z,6.20
2018-09-06T14:28:40.264Z,8.33
2018-09-06T14:31:11.022Z,10.98
2018-09-06T14:33:42.010Z,7.55
2018-09-06T14:36:12.706Z,8.28
2018-09-06T14:38:44.194Z,9.56
2018-09-06T14:41:14.985Z,6.58
2018-09-06T14:43:45.892Z,5.95
2018-09-06T14:46:16.926Z,7.00
2018-09-06T14:48:47.945Z,9.70
2018-09-06T14:51:18.793Z,8.93
2018-09-06T14:53:50.108Z,8.98
2018-09-06T14:56:21.191Z,9.15
2018-09-06T14:58:53.048Z,8.33
2018-09-06T15:01:22.859Z,12.67
2018-09-06T15:03:53.965Z,7.10
2018-09-06T15:06:24.778Z,13.30
2018-09-06T15:08:56.084Z,7.22
2018-09-06T15:11:26.784Z,7.00
2018-09-06T15:13:58.186Z,7.12
2018-09-06T15:16:28.973Z,11.20
2018-09-06T15:19:00.032Z,8.95
2018-09-06T15:21:31.061Z,7.58
2018-09-06T15:24:01.881Z,8.60
2018-09-06T15:26:33.184Z,8.98
2018-09-06T15:29:04.225Z,6.87
2018-09-06T15:31:43.196Z,10.66
2018-09-06T15:34:13.117Z,11.67
2018-09-06T15:36:42.902Z,15.32
2018-09-06T15:39:12.720Z,11.27
2018-09-06T15:41:42.777Z,11.77
2018-09-06T15:44:12.527Z,7.90
2018-09-06T15:46:43.056Z,10.47
2018-09-06T15:49:12.925Z,7.25
2018-09-06T15:51:42.812Z,7.45
2018-09-06T15:54:14.173Z,11.42
2018-09-06T15:56:44.928Z,10.65
2018-09-06T15:59:16.071Z,12.05
2018-09-06T16:01:46.858Z,9.13
2018-09-06T16:04:18.176Z,6.58
2018-09-06T16:06:48.908Z,9.38
2018-09-06T16:09:20.055Z,7.45
2018-09-06T16:11:50.871Z,10.05
2018-09-06T16:14:22.119Z,14.78
2018-09-06T16:16:52.877Z,9.48
2018-09-06T16:19:24.375Z,10.50
2018-09-06T16:21:54.955Z,7.35
2018-09-06T16:24:25.947Z,11.45
2018-09-06T16:26:56.968Z,10.03
2018-09-06T16:29:27.921Z,11.15
2018-09-06T16:31:59.556Z,10.18
2018-09-06T16:34:30.289Z,11.40
2018-09-06T16:37:01.084Z,8.98
2018-09-06T16:39:32.525Z,7.83
2018-09-06T16:42:03.265Z,11.20
2018-09-06T16:44:35.267Z,11.20
2018-09-06T16:47:05.121Z,13.70
2018-09-06T16:49:36.102Z,14.13
2018-09-06T16:52:07.051Z,15.48
2018-09-06T16:54:37.894Z,17.10
2018-09-06T16:57:09.149Z,18.70
2018-09-06T16:59:40.126Z,20.27
2018-09-06T17:02:10.957Z,21.07
2018-09-06T17:04:42.159Z,21.15
2018-09-06T17:07:13.101Z,22.93
2018-09-06T17:09:44.462Z,22.30
2018-09-06T17:12:15.322Z,19.90
2018-09-06T17:14:46.481Z,20.45
2018-09-06T17:17:17.343Z,22.77
2018-09-06T17:19:48.952Z,18.95
2018-09-06T17:22:18.802Z,16.30
2018-09-06T17:24:50.456Z,26.82
2018-09-06T17:27:21.193Z,22.93
2018-09-06T17:29:52.136Z,22.60
2018-09-06T17:32:23.306Z,22.73
2018-09-06T17:34:54.225Z,21.60
2018-09-06T17:37:25.038Z,25.57
2018-09-06T17:39:56.098Z,24.35
2018-09-06T17:42:27.844Z,19.17
2018-09-06T17:44:58.434Z,26.88
2018-09-06T17:47:29.118Z,26.25
2018-09-06T17:50:00.256Z,20.35
2018-09-06T17:52:31.197Z,22.90
2018-09-06T17:55:02.037Z,26.90
2018-09-06T17:57:33.185Z,22.77
2018-09-06T18:00:04.202Z,23.75
2018-09-06T18:02:35.430Z,21.50
2018-09-06T18:05:06.138Z,26.62
2018-09-06T18:07:37.107Z,24.15
2018-09-06T18:10:08.014Z,25.08
2018-09-06T18:12:39.336Z,22.80
2018-09-06T18:15:11.140Z,25.85
2018-09-06T18:17:41.729Z,26.43
2018-09-06T18:20:11.950Z,29.35
2018-09-06T18:22:44.375Z,36.75
2018-09-06T18:25:14.534Z,32.40
2018-09-06T18:27:45.188Z,27.80
2018-09-06T18:30:16.468Z,29.52
2018-09-06T18:32:47.285Z,28.07
2018-09-06T18:35:18.533Z,25.48
2018-09-06T18:37:49.358Z,24.02
2018-09-06T18:40:20.180Z,24.65
2018-09-06T18:42:51.013Z,24.12
2018-09-06T18:45:22.199Z,25.77
2018-09-06T18:47:53.270Z,23.12
2018-09-06T18:50:24.162Z,23.27
2018-09-06T18:52:55.058Z,22.62
2018-09-06T18:55:26.304Z,29.20
2018-09-06T18:57:57.134Z,22.62
2018-09-06T19:00:28.097Z,28.98
2018-09-06T19:02:59.007Z,21.05
2018-09-06T19:05:30.257Z,22.10
2018-09-06T19:08:01.415Z,21.15
2018-09-06T19:10:32.190Z,26.50
2018-09-06T19:13:03.222Z,27.77
2018-09-06T19:15:34.319Z,32.40
2018-09-06T19:18:05.298Z,29.92
2018-09-06T19:20:36.118Z,30.70
2018-09-06T19:23:07.273Z,34.18
2018-09-06T19:25:38.157Z,29.87
2018-09-06T19:28:09.157Z,25.00
2018-09-06T19:30:40.085Z,27.07
2018-09-06T19:33:11.680Z,25.52
2018-09-06T19:35:42.186Z,27.16
2018-09-06T19:38:13.156Z,23.92
2018-09-06T19:40:46.599Z,30.37
2018-09-06T19:43:17.056Z,22.97
2018-09-06T19:45:46.841Z,23.02
2018-09-06T19:48:17.125Z,22.47
2018-09-06T19:50:48.069Z,23.35
2018-09-06T19:53:18.894Z,20.80
2018-09-06T19:55:49.934Z,23.87
2018-09-06T19:58:20.840Z,27.95
2018-09-06T20:00:52.249Z,23.04
2018-09-06T20:03:23.054Z,32.38
2018-09-06T20:05:54.068Z,34.65
2018-09-06T20:08:24.933Z,37.20
2018-09-06T20:10:56.042Z,33.33
2018-09-06T20:13:27.073Z,34.70
2018-09-06T20:15:57.866Z,31.97
2018-09-06T20:18:29.288Z,37.16
2018-09-06T20:20:59.966Z,31.85
2018-09-06T20:23:30.966Z,30.37
2018-09-06T20:26:03.545Z,30.00
2018-09-06T20:28:33.795Z,29.57
2018-09-06T20:31:03.995Z,32.40
2018-09-06T20:33:35.162Z,28.38
2018-09-06T20:36:06.098Z,25.32
2018-09-06T20:38:36.970Z,26.25
2018-09-06T20:41:08.046Z,24.63
2018-09-06T20:43:39.091Z,23.27
2018-09-06T20:46:10.545Z,24.95
2018-09-06T20:48:41.055Z,27.98
2018-09-06T20:51:11.969Z,24.57
2018-09-06T20:53:42.833Z,22.98
2018-09-06T20:56:14.290Z,24.86
2018-09-06T20:58:45.044Z,24.00
2018-09-06T21:01:16.043Z,24.63
2018-09-06T21:03:46.861Z,23.57
2018-09-06T21:06:18.478Z,24.56
2018-09-06T21:08:49.100Z,25.02
2018-09-06T21:11:20.850Z,30.45
2018-09-06T21:13:50.759Z,24.50
2018-09-06T21:16:22.302Z,25.60
2018-09-06T21:18:53.433Z,25.92
2018-09-06T21:21:24.140Z,25.43
2018-09-06T21:23:55.087Z,23.92
2018-09-06T21:26:25.996Z,21.30
2018-09-06T21:28:57.017Z,25.52
2018-09-06T21:31:27.730Z,28.38
2018-09-06T21:33:58.231Z,24.96
2018-09-06T21:36:29.130Z,23.92
2018-09-06T21:39:00.074Z,26.42
2018-09-06T21:41:30.877Z,27.15
2018-09-06T21:44:02.129Z,23.62
2018-09-06T21:46:33.033Z,31.73
2018-09-06T21:49:03.983Z,32.40
2018-09-06T21:51:34.764Z,32.15
2018-09-06T21:54:06.323Z,27.30
2018-09-06T21:56:37.017Z,26.10
2018-09-06T21:59:07.942Z,26.07
2018-09-06T22:01:38.875Z,29.00
2018-09-06T22:04:10.486Z,25.44
2018-09-06T22:06:41.397Z,26.35
2018-09-06T22:09:13.575Z,29.10
2018-09-06T22:11:43.451Z,35.87
2018-09-06T22:14:14.000Z,25.90
2018-09-06T22:16:45.345Z,25.60
2018-09-06T22:19:16.022Z,28.40
2018-09-06T22:21:46.984Z,32.73
2018-09-06T22:24:17.794Z,28.45
2018-09-06T22:26:49.332Z,26.48
2018-09-06T22:29:20.156Z,24.67
2018-09-06T22:31:50.907Z,22.10
2018-09-06T22:34:20.810Z,22.20
2018-09-06T22:36:52.505Z,21.22
2018-09-06T22:39:23.080Z,23.90
2018-09-06T22:41:54.045Z,25.97
2018-09-06T22:44:24.967Z,24.70
2018-09-06T22:46:56.503Z,22.38
2018-09-06T22:49:27.077Z,27.10
2018-09-06T22:51:58.127Z,27.95
2018-09-06T22:54:28.948Z,27.80
2018-09-06T22:57:00.216Z,32.90
2018-09-06T22:59:31.220Z,30.00
2018-09-06T23:02:02.443Z,30.17
2018-09-06T23:04:33.007Z,25.20
2018-09-06T23:07:04.333Z,26.40
2018-09-06T23:09:35.281Z,30.10
2018-09-06T23:12:06.381Z,28.27
2018-09-06T23:14:37.254Z,26.50
2018-09-06T23:17:08.469Z,26.48
2018-09-06T23:19:39.063Z,26.87
2018-09-06T23:22:09.928Z,25.80
2018-09-06T23:24:41.508Z,24.90
2018-09-06T23:27:12.064Z,25.57
2018-09-06T23:29:43.190Z,26.12
2018-09-06T23:32:13.127Z,23.00
2018-09-06T23:34:44.232Z,22.70
2018-09-06T23:37:15.521Z,25.35
2018-09-06T23:39:46.357Z,24.40
2018-09-06T23:42:17.073Z,24.43
2018-09-06T23:44:48.097Z,24.18
2018-09-06T23:47:18.940Z,28.30
2018-09-06T23:49:50.447Z,22.27
2018-09-06T23:52:21.871Z,26.27
2018-09-06T23:54:51.941Z,23.75
2018-09-06T23:57:22.930Z,23.10
2018-09-06T23:59:55.124Z,27.06
